sensor_id;sensor_type;location;lat;lon;timestamp;P1;durP1;ratioP1;P2;durP2;ratioP2
70150;SDS011;57517;43.562;19.540;2023-08-06T00:00:05;6.90;;;4.00;;
70150;SDS011;57517;43.562;19.540;2023-08-06T00:02:32;15.13;;;3.65;;
70150;SDS011;57517;43.562;19.540;2023-08-06T00:04:57;6.30;;;3.75;;
70150;SDS011;57517;43.562;19.540;2023-08-06T00:07:23;6.72;;;3.53;;
70150;SDS011;57517;43.562;19.540;2023-08-06T00:09:49;6.47;;;4.00;;
70150;SDS011;57517;43.562;19.540;2023-08-06T00:12:15;5.43;;;3.53;;
70150;SDS011;57517;43.562;19.540;2023-08-06T00:14:40;6.45;;;3.90;;
70150;SDS011;57517;43.562;19.540;2023-08-06T00:17:07;8.23;;;3.33;;
70150;SDS011;57517;43.562;19.540;2023-08-06T00:19:33;8.18;;;4.18;;
70150;SDS011;57517;43.562;19.540;2023-08-06T00:21:59;6.60;;;3.47;;
70150;SDS011;57517;43.562;19.540;2023-08-06T00:24:25;6.05;;;3.22;;
70150;SDS011;57517;43.562;19.540;2023-08-06T00:26:50;7.75;;;3.67;;
70150;SDS011;57517;43.562;19.540;2023-08-06T00:29:16;8.18;;;4.47;;
70150;SDS011;57517;43.562;19.540;2023-08-06T00:31:42;7.25;;;3.65;;
70150;SDS011;57517;43.562;19.540;2023-08-06T00:34:07;6.75;;;3.42;;
70150;SDS011;57517;43.562;19.540;2023-08-06T00:36:33;6.75;;;4.07;;
70150;SDS011;57517;43.562;19.540;2023-08-06T00:38:59;8.38;;;3.80;;
70150;SDS011;57517;43.562;19.540;2023-08-06T00:41:25;6.93;;;4.35;;
70150;SDS011;57517;43.562;19.540;2023-08-06T00:43:50;7.20;;;3.65;;
70150;SDS011;57517;43.562;19.540;2023-08-06T00:46:16;8.27;;;4.38;;
70150;SDS011;57517;43.562;19.540;2023-08-06T00:48:42;6.25;;;3.60;;
70150;SDS011;57517;43.562;19.540;2023-08-06T00:51:09;7.00;;;3.83;;
70150;SDS011;57517;43.562;19.540;2023-08-06T00:53:35;8.82;;;4.10;;
70150;SDS011;57517;43.562;19.540;2023-08-06T00:56:03;5.93;;;3.65;;
70150;SDS011;57517;43.562;19.540;2023-08-06T00:58:29;7.25;;;3.83;;
70150;SDS011;57517;43.562;19.540;2023-08-06T01:00:55;6.43;;;3.95;;
70150;SDS011;57517;43.562;19.540;2023-08-06T01:03:21;6.50;;;4.03;;
70150;SDS011;57517;43.562;19.540;2023-08-06T01:05:47;7.03;;;4.22;;
70150;SDS011;57517;43.562;19.540;2023-08-06T01:13:48;9.18;;;4.47;;
70150;SDS011;57517;43.562;19.540;2023-08-06T01:16:20;7.45;;;3.55;;
70150;SDS011;57517;43.562;19.540;2023-08-06T01:18:46;7.13;;;4.38;;
70150;SDS011;57517;43.562;19.540;2023-08-06T01:21:14;8.77;;;4.05;;
70150;SDS011;57517;43.562;19.540;2023-08-06T01:23:41;5.53;;;3.67;;
70150;SDS011;57517;43.562;19.540;2023-08-06T01:26:15;6.45;;;4.30;;
70150;SDS011;57517;43.562;19.540;2023-08-06T01:29:12;8.13;;;4.55;;
70150;SDS011;57517;43.562;19.540;2023-08-06T01:31:44;7.70;;;4.68;;
70150;SDS011;57517;43.562;19.540;2023-08-06T01:34:17;7.18;;;4.30;;
70150;SDS011;57517;43.562;19.540;2023-08-06T01:39:11;6.38;;;4.63;;
70150;SDS011;57517;43.562;19.540;2023-08-06T01:41:37;7.43;;;4.50;;
70150;SDS011;57517;43.562;19.540;2023-08-06T01:44:03;8.88;;;4.72;;
70150;SDS011;57517;43.562;19.540;2023-08-06T01:46:29;7.28;;;4.35;;
70150;SDS011;57517;43.562;19.540;2023-08-06T01:48:54;6.53;;;4.40;;
70150;SDS011;57517;43.562;19.540;2023-08-06T01:51:20;9.70;;;4.35;;
70150;SDS011;57517;43.562;19.540;2023-08-06T01:53:46;6.60;;;4.30;;
70150;SDS011;57517;43.562;19.540;2023-08-06T01:56:12;9.43;;;4.30;;
70150;SDS011;57517;43.562;19.540;2023-08-06T01:58:37;9.60;;;5.15;;
70150;SDS011;57517;43.562;19.540;2023-08-06T02:01:03;8.00;;;4.65;;
70150;SDS011;57517;43.562;19.540;2023-08-06T02:03:29;8.88;;;4.80;;
70150;SDS011;57517;43.562;19.540;2023-08-06T02:05:55;7.00;;;4.32;;
70150;SDS011;57517;43.562;19.540;2023-08-06T02:08:21;10.48;;;5.10;;
70150;SDS011;57517;43.562;19.540;2023-08-06T02:10:46;7.30;;;4.78;;
70150;SDS011;57517;43.562;19.540;2023-08-06T02:13:12;9.65;;;4.70;;
70150;SDS011;57517;43.562;19.540;2023-08-06T02:15:44;7.28;;;4.82;;
70150;SDS011;57517;43.562;19.540;2023-08-06T02:18:13;7.70;;;4.93;;
70150;SDS011;57517;43.562;19.540;2023-08-06T02:20:40;6.88;;;4.80;;
70150;SDS011;57517;43.562;19.540;2023-08-06T02:23:06;8.23;;;4.85;;
70150;SDS011;57517;43.562;19.540;2023-08-06T02:25:32;9.05;;;4.78;;
70150;SDS011;57517;43.562;19.540;2023-08-06T02:27:58;8.35;;;4.95;;
70150;SDS011;57517;43.562;19.540;2023-08-06T02:30:23;13.75;;;4.90;;
70150;SDS011;57517;43.562;19.540;2023-08-06T02:32:49;8.68;;;4.82;;
70150;SDS011;57517;43.562;19.540;2023-08-06T02:35:15;6.93;;;4.57;;
70150;SDS011;57517;43.562;19.540;2023-08-06T02:37:41;7.47;;;4.78;;
70150;SDS011;57517;43.562;19.540;2023-08-06T02:40:07;7.75;;;4.80;;
70150;SDS011;57517;43.562;19.540;2023-08-06T02:42:33;9.05;;;4.65;;
70150;SDS011;57517;43.562;19.540;2023-08-06T02:44:58;8.07;;;4.80;;
70150;SDS011;57517;43.562;19.540;2023-08-06T02:47:24;7.47;;;4.60;;
70150;SDS011;57517;43.562;19.540;2023-08-06T02:49:50;6.13;;;4.82;;
70150;SDS011;57517;43.562;19.540;2023-08-06T02:52:16;11.98;;;6.15;;
70150;SDS011;57517;43.562;19.540;2023-08-06T02:54:42;7.60;;;4.72;;
70150;SDS011;57517;43.562;19.540;2023-08-06T02:57:08;8.18;;;5.25;;
70150;SDS011;57517;43.562;19.540;2023-08-06T02:59:33;7.30;;;4.78;;
70150;SDS011;57517;43.562;19.540;2023-08-06T03:01:59;8.13;;;4.78;;
70150;SDS011;57517;43.562;19.540;2023-08-06T03:04:25;7.30;;;5.03;;
70150;SDS011;57517;43.562;19.540;2023-08-06T03:06:51;7.88;;;4.55;;
70150;SDS011;57517;43.562;19.540;2023-08-06T03:09:17;6.35;;;4.80;;
70150;SDS011;57517;43.562;19.540;2023-08-06T03:11:43;6.38;;;5.05;;
70150;SDS011;57517;43.562;19.540;2023-08-06T03:14:09;11.30;;;4.93;;
70150;SDS011;57517;43.562;19.540;2023-08-06T03:16:35;6.38;;;4.63;;
70150;SDS011;57517;43.562;19.540;2023-08-06T03:19:01;7.65;;;5.03;;
70150;SDS011;57517;43.562;19.540;2023-08-06T03:21:27;6.68;;;4.75;;
70150;SDS011;57517;43.562;19.540;2023-08-06T03:23:53;11.20;;;4.95;;
70150;SDS011;57517;43.562;19.540;2023-08-06T03:26:19;8.00;;;5.10;;
70150;SDS011;57517;43.562;19.540;2023-08-06T03:28:44;7.85;;;5.22;;
70150;SDS011;57517;43.562;19.540;2023-08-06T03:31:10;7.38;;;4.97;;
70150;SDS011;57517;43.562;19.540;2023-08-06T03:33:36;8.40;;;5.65;;
70150;SDS011;57517;43.562;19.540;2023-08-06T03:36:02;8.15;;;5.10;;
70150;SDS011;57517;43.562;19.540;2023-08-06T03:38:28;8.48;;;5.53;;
70150;SDS011;57517;43.562;19.540;2023-08-06T03:40:53;10.27;;;5.40;;
70150;SDS011;57517;43.562;19.540;2023-08-06T03:43:19;9.95;;;5.57;;
70150;SDS011;57517;43.562;19.540;2023-08-06T03:45:45;7.55;;;5.30;;
70150;SDS011;57517;43.562;19.540;2023-08-06T03:48:11;8.43;;;5.43;;
70150;SDS011;57517;43.562;19.540;2023-08-06T03:50:37;7.05;;;5.25;;
70150;SDS011;57517;43.562;19.540;2023-08-06T03:53:03;8.57;;;5.25;;
70150;SDS011;57517;43.562;19.540;2023-08-06T03:55:29;7.65;;;5.53;;
70150;SDS011;57517;43.562;19.540;2023-08-06T03:57:54;7.70;;;5.85;;
70150;SDS011;57517;43.562;19.540;2023-08-06T04:00:20;7.22;;;5.53;;
70150;SDS011;57517;43.562;19.540;2023-08-06T04:02:46;8.73;;;5.70;;
70150;SDS011;57517;43.562;19.540;2023-08-06T04:05:13;9.73;;;6.05;;
70150;SDS011;57517;43.562;19.540;2023-08-06T04:07:38;9.43;;;5.43;;
70150;SDS011;57517;43.562;19.540;2023-08-06T04:10:04;7.88;;;5.30;;
70150;SDS011;57517;43.562;19.540;2023-08-06T04:12:30;12.38;;;5.95;;
70150;SDS011;57517;43.562;19.540;2023-08-06T04:14:58;9.25;;;6.13;;
70150;SDS011;57517;43.562;19.540;2023-08-06T04:17:24;9.15;;;5.63;;
70150;SDS011;57517;43.562;19.540;2023-08-06T04:19:51;9.38;;;5.63;;
70150;SDS011;57517;43.562;19.540;2023-08-06T04:22:18;10.05;;;5.72;;
70150;SDS011;57517;43.562;19.540;2023-08-06T04:24:44;9.32;;;5.60;;
70150;SDS011;57517;43.562;19.540;2023-08-06T04:27:10;8.70;;;5.88;;
70150;SDS011;57517;43.562;19.540;2023-08-06T04:29:37;11.50;;;5.60;;
70150;SDS011;57517;43.562;19.540;2023-08-06T04:32:07;8.63;;;5.70;;
70150;SDS011;57517;43.562;19.540;2023-08-06T04:34:34;7.97;;;6.00;;
70150;SDS011;57517;43.562;19.540;2023-08-06T04:37:01;9.80;;;6.88;;
70150;SDS011;57517;43.562;19.540;2023-08-06T04:39:27;8.00;;;5.85;;
70150;SDS011;57517;43.562;19.540;2023-08-06T04:41:53;9.82;;;5.60;;
70150;SDS011;57517;43.562;19.540;2023-08-06T04:44:20;7.22;;;5.10;;
70150;SDS011;57517;43.562;19.540;2023-08-06T04:46:46;8.60;;;5.53;;
70150;SDS011;57517;43.562;19.540;2023-08-06T04:49:12;9.02;;;5.72;;
70150;SDS011;57517;43.562;19.540;2023-08-06T04:51:37;7.80;;;5.50;;
70150;SDS011;57517;43.562;19.540;2023-08-06T04:54:03;9.07;;;5.28;;
70150;SDS011;57517;43.562;19.540;2023-08-06T04:56:29;12.82;;;6.05;;
70150;SDS011;57517;43.562;19.540;2023-08-06T04:58:55;8.35;;;5.72;;
70150;SDS011;57517;43.562;19.540;2023-08-06T05:01:21;8.35;;;5.85;;
70150;SDS011;57517;43.562;19.540;2023-08-06T05:03:47;10.23;;;6.35;;
70150;SDS011;57517;43.562;19.540;2023-08-06T05:06:12;8.57;;;6.32;;
70150;SDS011;57517;43.562;19.540;2023-08-06T05:08:38;9.10;;;6.22;;
70150;SDS011;57517;43.562;19.540;2023-08-06T05:11:05;13.95;;;8.25;;
70150;SDS011;57517;43.562;19.540;2023-08-06T05:13:31;14.13;;;9.80;;
70150;SDS011;57517;43.562;19.540;2023-08-06T05:15:57;17.88;;;10.57;;
70150;SDS011;57517;43.562;19.540;2023-08-06T05:18:23;9.68;;;7.65;;
70150;SDS011;57517;43.562;19.540;2023-08-06T05:20:49;9.30;;;6.68;;
70150;SDS011;57517;43.562;19.540;2023-08-06T05:23:15;9.18;;;5.97;;
70150;SDS011;57517;43.562;19.540;2023-08-06T05:25:41;8.40;;;6.90;;
70150;SDS011;57517;43.562;19.540;2023-08-06T05:28:07;7.28;;;5.45;;
70150;SDS011;57517;43.562;19.540;2023-08-06T05:30:33;8.45;;;5.88;;
70150;SDS011;57517;43.562;19.540;2023-08-06T05:33:02;8.00;;;5.85;;
70150;SDS011;57517;43.562;19.540;2023-08-06T05:35:27;9.00;;;6.22;;
70150;SDS011;57517;43.562;19.540;2023-08-06T05:37:53;9.43;;;5.78;;
70150;SDS011;57517;43.562;19.540;2023-08-06T05:40:19;8.80;;;5.97;;
70150;SDS011;57517;43.562;19.540;2023-08-06T05:42:45;7.90;;;5.78;;
70150;SDS011;57517;43.562;19.540;2023-08-06T05:45:10;9.52;;;7.85;;
70150;SDS011;57517;43.562;19.540;2023-08-06T05:47:36;7.80;;;6.00;;
70150;SDS011;57517;43.562;19.540;2023-08-06T05:50:02;8.90;;;6.55;;
70150;SDS011;57517;43.562;19.540;2023-08-06T05:52:28;8.88;;;6.30;;
70150;SDS011;57517;43.562;19.540;2023-08-06T05:54:54;8.27;;;5.88;;
70150;SDS011;57517;43.562;19.540;2023-08-06T05:57:20;9.23;;;6.07;;
70150;SDS011;57517;43.562;19.540;2023-08-06T05:59:46;10.73;;;6.50;;
70150;SDS011;57517;43.562;19.540;2023-08-06T06:02:11;8.90;;;8.10;;
70150;SDS011;57517;43.562;19.540;2023-08-06T06:04:37;9.85;;;8.85;;
70150;SDS011;57517;43.562;19.540;2023-08-06T06:07:03;10.07;;;9.18;;
70150;SDS011;57517;43.562;19.540;2023-08-06T06:09:29;10.00;;;9.10;;
70150;SDS011;57517;43.562;19.540;2023-08-06T06:11:55;9.65;;;8.75;;
70150;SDS011;57517;43.562;19.540;2023-08-06T06:14:21;14.00;;;9.95;;
70150;SDS011;57517;43.562;19.540;2023-08-06T06:16:47;10.98;;;9.93;;
70150;SDS011;57517;43.562;19.540;2023-08-06T06:19:13;16.17;;;14.68;;
70150;SDS011;57517;43.562;19.540;2023-08-06T06:21:39;11.25;;;10.23;;
70150;SDS011;57517;43.562;19.540;2023-08-06T06:24:06;11.75;;;10.68;;
70150;SDS011;57517;43.562;19.540;2023-08-06T06:26:33;11.30;;;10.40;;
70150;SDS011;57517;43.562;19.540;2023-08-06T06:28:59;11.75;;;10.85;;
70150;SDS011;57517;43.562;19.540;2023-08-06T06:31:25;11.60;;;10.60;;
70150;SDS011;57517;43.562;19.540;2023-08-06T06:33:51;12.68;;;11.57;;
70150;SDS011;57517;43.562;19.540;2023-08-06T06:36:19;12.65;;;11.65;;
70150;SDS011;57517;43.562;19.540;2023-08-06T06:38:45;11.73;;;10.90;;
70150;SDS011;57517;43.562;19.540;2023-08-06T06:41:11;38.45;;;29.33;;
70150;SDS011;57517;43.562;19.540;2023-08-06T06:43:36;12.95;;;11.75;;
70150;SDS011;57517;43.562;19.540;2023-08-06T06:46:04;14.90;;;13.60;;
70150;SDS011;57517;43.562;19.540;2023-08-06T06:48:31;14.18;;;13.07;;
70150;SDS011;57517;43.562;19.540;2023-08-06T06:50:58;11.48;;;10.68;;
70150;SDS011;57517;43.562;19.540;2023-08-06T06:53:24;11.38;;;10.57;;
70150;SDS011;57517;43.562;19.540;2023-08-06T06:55:55;14.70;;;13.45;;
70150;SDS011;57517;43.562;19.540;2023-08-06T06:58:26;13.43;;;12.43;;
70150;SDS011;57517;43.562;19.540;2023-08-06T07:00:52;13.07;;;12.07;;
70150;SDS011;57517;43.562;19.540;2023-08-06T07:03:19;18.48;;;16.88;;
70150;SDS011;57517;43.562;19.540;2023-08-06T07:05:45;12.43;;;11.63;;
70150;SDS011;57517;43.562;19.540;2023-08-06T07:08:11;20.80;;;19.00;;
70150;SDS011;57517;43.562;19.540;2023-08-06T07:10:37;14.23;;;12.90;;
70150;SDS011;57517;43.562;19.540;2023-08-06T07:13:04;12.35;;;11.43;;
70150;SDS011;57517;43.562;19.540;2023-08-06T07:15:29;12.05;;;11.25;;
70150;SDS011;57517;43.562;19.540;2023-08-06T07:17:55;11.13;;;10.38;;
70150;SDS011;57517;43.562;19.540;2023-08-06T07:20:21;12.07;;;11.07;;
70150;SDS011;57517;43.562;19.540;2023-08-06T07:22:47;10.60;;;9.90;;
70150;SDS011;57517;43.562;19.540;2023-08-06T07:25:15;11.75;;;10.95;;
70150;SDS011;57517;43.562;19.540;2023-08-06T07:27:41;11.15;;;10.23;;
70150;SDS011;57517;43.562;19.540;2023-08-06T07:30:07;11.30;;;10.50;;
70150;SDS011;57517;43.562;19.540;2023-08-06T07:32:33;13.00;;;12.00;;
70150;SDS011;57517;43.562;19.540;2023-08-06T07:34:59;12.30;;;11.40;;
70150;SDS011;57517;43.562;19.540;2023-08-06T07:37:27;11.30;;;10.50;;
70150;SDS011;57517;43.562;19.540;2023-08-06T07:39:56;14.52;;;13.13;;
70150;SDS011;57517;43.562;19.540;2023-08-06T07:42:23;19.23;;;17.52;;
70150;SDS011;57517;43.562;19.540;2023-08-06T07:44:58;12.02;;;11.13;;
70150;SDS011;57517;43.562;19.540;2023-08-06T07:47:24;10.85;;;9.85;;
70150;SDS011;57517;43.562;19.540;2023-08-06T07:49:50;7.82;;;6.47;;
70150;SDS011;57517;43.562;19.540;2023-08-06T07:52:17;6.30;;;5.72;;
70150;SDS011;57517;43.562;19.540;2023-08-06T07:54:43;7.93;;;6.30;;
70150;SDS011;57517;43.562;19.540;2023-08-06T07:57:08;7.18;;;6.47;;
70150;SDS011;57517;43.562;19.540;2023-08-06T07:59:35;6.50;;;5.35;;
70150;SDS011;57517;43.562;19.540;2023-08-06T08:02:01;8.73;;;6.10;;
70150;SDS011;57517;43.562;19.540;2023-08-06T08:04:27;6.40;;;5.28;;
70150;SDS011;57517;43.562;19.540;2023-08-06T08:06:53;6.82;;;6.00;;
70150;SDS011;57517;43.562;19.540;2023-08-06T08:09:18;7.50;;;6.43;;
70150;SDS011;57517;43.562;19.540;2023-08-06T08:11:44;8.02;;;7.22;;
70150;SDS011;57517;43.562;19.540;2023-08-06T08:14:11;9.18;;;8.38;;
70150;SDS011;57517;43.562;19.540;2023-08-06T08:16:36;6.32;;;5.45;;
70150;SDS011;57517;43.562;19.540;2023-08-06T08:19:02;7.82;;;5.53;;
70150;SDS011;57517;43.562;19.540;2023-08-06T08:21:29;13.05;;;9.55;;
70150;SDS011;57517;43.562;19.540;2023-08-06T08:23:55;7.30;;;5.80;;
70150;SDS011;57517;43.562;19.540;2023-08-06T08:26:20;12.30;;;8.88;;
70150;SDS011;57517;43.562;19.540;2023-08-06T08:28:46;11.57;;;8.02;;
70150;SDS011;57517;43.562;19.540;2023-08-06T08:31:12;11.90;;;7.63;;
70150;SDS011;57517;43.562;19.540;2023-08-06T08:33:39;10.35;;;6.80;;
70150;SDS011;57517;43.562;19.540;2023-08-06T08:36:05;8.32;;;7.03;;
70150;SDS011;57517;43.562;19.540;2023-08-06T08:38:31;15.88;;;11.32;;
70150;SDS011;57517;43.562;19.540;2023-08-06T08:40:56;15.13;;;11.10;;
70150;SDS011;57517;43.562;19.540;2023-08-06T08:43:23;8.13;;;5.47;;
70150;SDS011;57517;43.562;19.540;2023-08-06T08:45:52;5.35;;;4.40;;
70150;SDS011;57517;43.562;19.540;2023-08-06T08:48:24;9.02;;;6.63;;
70150;SDS011;57517;43.562;19.540;2023-08-06T08:50:52;15.18;;;8.45;;
70150;SDS011;57517;43.562;19.540;2023-08-06T08:53:18;7.20;;;5.03;;
70150;SDS011;57517;43.562;19.540;2023-08-06T08:55:47;7.10;;;4.68;;
70150;SDS011;57517;43.562;19.540;2023-08-06T08:58:14;6.90;;;4.90;;
70150;SDS011;57517;43.562;19.540;2023-08-06T09:00:43;6.65;;;4.88;;
70150;SDS011;57517;43.562;19.540;2023-08-06T09:03:11;7.43;;;5.13;;
70150;SDS011;57517;43.562;19.540;2023-08-06T09:05:37;6.13;;;4.47;;
70150;SDS011;57517;43.562;19.540;2023-08-06T09:08:08;5.60;;;4.60;;
70150;SDS011;57517;43.562;19.540;2023-08-06T09:10:37;6.32;;;4.72;;
70150;SDS011;57517;43.562;19.540;2023-08-06T09:13:05;12.85;;;9.02;;
70150;SDS011;57517;43.562;19.540;2023-08-06T09:15:31;11.45;;;5.95;;
70150;SDS011;57517;43.562;19.540;2023-08-06T09:17:58;6.55;;;4.97;;
70150;SDS011;57517;43.562;19.540;2023-08-06T09:20:24;8.02;;;5.53;;
70150;SDS011;57517;43.562;19.540;2023-08-06T09:22:52;6.03;;;4.68;;
70150;SDS011;57517;43.562;19.540;2023-08-06T09:25:22;5.85;;;3.97;;
70150;SDS011;57517;43.562;19.540;2023-08-06T09:27:50;9.50;;;5.35;;
70150;SDS011;57517;43.562;19.540;2023-08-06T09:30:33;8.88;;;5.70;;
70150;SDS011;57517;43.562;19.540;2023-08-06T09:35:30;8.18;;;5.55;;
70150;SDS011;57517;43.562;19.540;2023-08-06T09:38:06;5.47;;;3.80;;
70150;SDS011;57517;43.562;19.540;2023-08-06T09:40:33;5.00;;;3.80;;
70150;SDS011;57517;43.562;19.540;2023-08-06T09:42:59;5.55;;;3.88;;
70150;SDS011;57517;43.562;19.540;2023-08-06T09:45:30;7.00;;;3.75;;
70150;SDS011;57517;43.562;19.540;2023-08-06T09:47:58;7.82;;;5.45;;
70150;SDS011;57517;43.562;19.540;2023-08-06T09:50:27;5.82;;;3.67;;
70150;SDS011;57517;43.562;19.540;2023-08-06T09:55:24;5.38;;;3.88;;
70150;SDS011;57517;43.562;19.540;2023-08-06T09:57:52;5.57;;;4.07;;
70150;SDS011;57517;43.562;19.540;2023-08-06T10:00:19;7.75;;;4.82;;
70150;SDS011;57517;43.562;19.540;2023-08-06T10:02:45;7.68;;;4.18;;
70150;SDS011;57517;43.562;19.540;2023-08-06T10:05:11;5.88;;;3.10;;
70150;SDS011;57517;43.562;19.540;2023-08-06T10:07:37;11.18;;;6.63;;
70150;SDS011;57517;43.562;19.540;2023-08-06T10:10:05;8.15;;;4.88;;
70150;SDS011;57517;43.562;19.540;2023-08-06T10:12:32;15.07;;;9.88;;
70150;SDS011;57517;43.562;19.540;2023-08-06T10:15:01;8.70;;;4.90;;
70150;SDS011;57517;43.562;19.540;2023-08-06T10:17:33;6.18;;;3.70;;
70150;SDS011;57517;43.562;19.540;2023-08-06T10:20:01;6.32;;;3.30;;
70150;SDS011;57517;43.562;19.540;2023-08-06T10:22:29;6.70;;;4.63;;
70150;SDS011;57517;43.562;19.540;2023-08-06T10:24:58;5.65;;;3.95;;
70150;SDS011;57517;43.562;19.540;2023-08-06T10:32:51;20.38;;;14.18;;
70150;SDS011;57517;43.562;19.540;2023-08-06T10:35:29;11.23;;;7.18;;
70150;SDS011;57517;43.562;19.540;2023-08-06T10:38:10;7.95;;;5.50;;
70150;SDS011;57517;43.562;19.540;2023-08-06T10:40:48;14.77;;;9.23;;
70150;SDS011;57517;43.562;19.540;2023-08-06T10:43:35;18.45;;;11.45;;
70150;SDS011;57517;43.562;19.540;2023-08-06T10:46:11;14.40;;;9.55;;
70150;SDS011;57517;43.562;19.540;2023-08-06T10:48:47;13.90;;;9.55;;
70150;SDS011;57517;43.562;19.540;2023-08-06T10:51:13;15.73;;;10.35;;
70150;SDS011;57517;43.562;19.540;2023-08-06T10:53:47;7.13;;;5.25;;
70150;SDS011;57517;43.562;19.540;2023-08-06T10:56:15;8.13;;;5.10;;
70150;SDS011;57517;43.562;19.540;2023-08-06T10:58:42;9.15;;;6.40;;
70150;SDS011;57517;43.562;19.540;2023-08-06T11:01:09;6.95;;;4.30;;
70150;SDS011;57517;43.562;19.540;2023-08-06T11:03:36;7.80;;;3.60;;
70150;SDS011;57517;43.562;19.540;2023-08-06T11:06:02;9.48;;;4.47;;
70150;SDS011;57517;43.562;19.540;2023-08-06T11:08:33;17.63;;;10.73;;
70150;SDS011;57517;43.562;19.540;2023-08-06T11:13:41;13.57;;;8.95;;
70150;SDS011;57517;43.562;19.540;2023-08-06T11:16:11;10.80;;;6.65;;
70150;SDS011;57517;43.562;19.540;2023-08-06T11:18:37;7.55;;;4.20;;
70150;SDS011;57517;43.562;19.540;2023-08-06T11:21:04;5.80;;;3.30;;
70150;SDS011;57517;43.562;19.540;2023-08-06T11:23:30;14.90;;;9.00;;
70150;SDS011;57517;43.562;19.540;2023-08-06T11:25:56;19.38;;;9.68;;
70150;SDS011;57517;43.562;19.540;2023-08-06T11:28:24;22.65;;;14.93;;
70150;SDS011;57517;43.562;19.540;2023-08-06T11:30:50;30.48;;;23.48;;
70150;SDS011;57517;43.562;19.540;2023-08-06T11:33:23;86.60;;;57.83;;
70150;SDS011;57517;43.562;19.540;2023-08-06T11:35:56;61.40;;;44.95;;
70150;SDS011;57517;43.562;19.540;2023-08-06T11:38:26;18.02;;;13.40;;
70150;SDS011;57517;43.562;19.540;2023-08-06T11:40:55;32.72;;;26.48;;
70150;SDS011;57517;43.562;19.540;2023-08-06T11:43:22;20.35;;;16.23;;
70150;SDS011;57517;43.562;19.540;2023-08-06T11:45:50;32.65;;;22.90;;
70150;SDS011;57517;43.562;19.540;2023-08-06T11:48:19;21.48;;;11.85;;
70150;SDS011;57517;43.562;19.540;2023-08-06T11:50:45;19.05;;;11.50;;
70150;SDS011;57517;43.562;19.540;2023-08-06T11:53:14;18.00;;;11.90;;
70150;SDS011;57517;43.562;19.540;2023-08-06T11:55:40;9.43;;;6.40;;
70150;SDS011;57517;43.562;19.540;2023-08-06T11:58:08;6.70;;;4.78;;
70150;SDS011;57517;43.562;19.540;2023-08-06T12:00:36;9.40;;;7.32;;
70150;SDS011;57517;43.562;19.540;2023-08-06T12:03:02;13.45;;;7.68;;
70150;SDS011;57517;43.562;19.540;2023-08-06T12:05:30;28.33;;;16.98;;
70150;SDS011;57517;43.562;19.540;2023-08-06T12:07:58;21.05;;;13.73;;
70150;SDS011;57517;43.562;19.540;2023-08-06T12:10:25;11.40;;;8.52;;
70150;SDS011;57517;43.562;19.540;2023-08-06T12:12:53;9.18;;;6.68;;
70150;SDS011;57517;43.562;19.540;2023-08-06T12:15:19;10.18;;;7.35;;
70150;SDS011;57517;43.562;19.540;2023-08-06T12:17:45;14.18;;;11.00;;
70150;SDS011;57517;43.562;19.540;2023-08-06T12:20:11;7.25;;;4.70;;
70150;SDS011;57517;43.562;19.540;2023-08-06T12:22:37;6.35;;;4.07;;
70150;SDS011;57517;43.562;19.540;2023-08-06T12:27:36;24.77;;;16.63;;
70150;SDS011;57517;43.562;19.540;2023-08-06T12:30:02;6.30;;;3.80;;
70150;SDS011;57517;43.562;19.540;2023-08-06T12:32:29;15.00;;;9.85;;
70150;SDS011;57517;43.562;19.540;2023-08-06T12:34:56;4.28;;;2.90;;
70150;SDS011;57517;43.562;19.540;2023-08-06T12:37:23;5.90;;;4.03;;
70150;SDS011;57517;43.562;19.540;2023-08-06T12:39:50;8.68;;;5.85;;
70150;SDS011;57517;43.562;19.540;2023-08-06T12:42:16;10.40;;;6.13;;
70150;SDS011;57517;43.562;19.540;2023-08-06T12:44:42;10.88;;;6.82;;
70150;SDS011;57517;43.562;19.540;2023-08-06T12:47:08;4.57;;;2.97;;
70150;SDS011;57517;43.562;19.540;2023-08-06T12:49:34;8.85;;;4.78;;
70150;SDS011;57517;43.562;19.540;2023-08-06T12:52:00;4.70;;;3.03;;
70150;SDS011;57517;43.562;19.540;2023-08-06T12:54:26;12.80;;;8.20;;
70150;SDS011;57517;43.562;19.540;2023-08-06T12:56:52;5.45;;;3.13;;
70150;SDS011;57517;43.562;19.540;2023-08-06T12:59:18;9.07;;;6.47;;
70150;SDS011;57517;43.562;19.540;2023-08-06T13:01:44;19.23;;;11.73;;
70150;SDS011;57517;43.562;19.540;2023-08-06T13:04:11;13.18;;;8.73;;
70150;SDS011;57517;43.562;19.540;2023-08-06T13:06:37;17.25;;;11.63;;
70150;SDS011;57517;43.562;19.540;2023-08-06T13:09:11;6.20;;;3.78;;
70150;SDS011;57517;43.562;19.540;2023-08-06T13:11:38;28.33;;;17.85;;
70150;SDS011;57517;43.562;19.540;2023-08-06T13:14:05;10.07;;;6.82;;
70150;SDS011;57517;43.562;19.540;2023-08-06T13:16:33;18.13;;;13.43;;
70150;SDS011;57517;43.562;19.540;2023-08-06T13:18:59;4.82;;;3.42;;
70150;SDS011;57517;43.562;19.540;2023-08-06T13:21:30;8.30;;;5.93;;
70150;SDS011;57517;43.562;19.540;2023-08-06T13:24:01;13.55;;;8.82;;
70150;SDS011;57517;43.562;19.540;2023-08-06T13:26:30;16.30;;;11.93;;
70150;SDS011;57517;43.562;19.540;2023-08-06T13:28:57;21.75;;;16.63;;
70150;SDS011;57517;43.562;19.540;2023-08-06T13:31:23;30.17;;;20.13;;
70150;SDS011;57517;43.562;19.540;2023-08-06T13:33:50;33.28;;;22.50;;
70150;SDS011;57517;43.562;19.540;2023-08-06T13:36:16;9.38;;;6.28;;
70150;SDS011;57517;43.562;19.540;2023-08-06T13:38:42;20.98;;;15.57;;
70150;SDS011;57517;43.562;19.540;2023-08-06T13:41:08;42.45;;;31.83;;
70150;SDS011;57517;43.562;19.540;2023-08-06T13:43:34;13.20;;;8.18;;
70150;SDS011;57517;43.562;19.540;2023-08-06T13:46:00;13.43;;;8.00;;
70150;SDS011;57517;43.562;19.540;2023-08-06T13:48:26;33.42;;;15.13;;
70150;SDS011;57517;43.562;19.540;2023-08-06T13:50:52;52.08;;;27.25;;
70150;SDS011;57517;43.562;19.540;2023-08-06T13:53:17;76.90;;;37.60;;
70150;SDS011;57517;43.562;19.540;2023-08-06T13:55:43;155.93;;;76.68;;
70150;SDS011;57517;43.562;19.540;2023-08-06T13:58:09;65.38;;;37.85;;
70150;SDS011;57517;43.562;19.540;2023-08-06T14:00:35;17.52;;;10.60;;
70150;SDS011;57517;43.562;19.540;2023-08-06T14:03:01;6.05;;;3.70;;
70150;SDS011;57517;43.562;19.540;2023-08-06T14:05:27;18.38;;;9.98;;
70150;SDS011;57517;43.562;19.540;2023-08-06T14:07:53;10.65;;;6.63;;
70150;SDS011;57517;43.562;19.540;2023-08-06T14:10:19;18.17;;;9.45;;
70150;SDS011;57517;43.562;19.540;2023-08-06T14:12:44;9.27;;;5.80;;
70150;SDS011;57517;43.562;19.540;2023-08-06T14:15:11;5.43;;;4.30;;
70150;SDS011;57517;43.562;19.540;2023-08-06T14:17:36;7.63;;;5.55;;
70150;SDS011;57517;43.562;19.540;2023-08-06T14:20:03;17.42;;;10.98;;
70150;SDS011;57517;43.562;19.540;2023-08-06T14:22:30;10.93;;;4.95;;
70150;SDS011;57517;43.562;19.540;2023-08-06T14:24:58;10.13;;;4.90;;
70150;SDS011;57517;43.562;19.540;2023-08-06T14:27:24;8.52;;;5.22;;
70150;SDS011;57517;43.562;19.540;2023-08-06T14:29:50;18.98;;;8.45;;
70150;SDS011;57517;43.562;19.540;2023-08-06T14:32:16;10.35;;;6.60;;
70150;SDS011;57517;43.562;19.540;2023-08-06T14:34:43;14.73;;;11.00;;
70150;SDS011;57517;43.562;19.540;2023-08-06T14:37:09;10.25;;;7.13;;
70150;SDS011;57517;43.562;19.540;2023-08-06T14:39:36;6.78;;;4.40;;
70150;SDS011;57517;43.562;19.540;2023-08-06T14:42:02;6.85;;;4.78;;
70150;SDS011;57517;43.562;19.540;2023-08-06T14:44:28;18.48;;;10.27;;
70150;SDS011;57517;43.562;19.540;2023-08-06T14:46:54;17.13;;;12.10;;